Time;durP1;ratioP1;P1;durP2;ratioP2;P2;SDS_P1;SDS_P2;PMS_P1;PMS_P2;Temp;Humidity;BMP_temperature;BMP_pressure;BME280_temperature;BME280_humidity;BME280_pressure;Samples;Min_cycle;Max_cycle;Signal;HPM_P1;HPM_P2
2023/05/09 00:00:13;;;;;;;104.32;39.42;;;15.70;99.90;;;;;;5077582;28;20045;-79
2023/05/09 00:02:40;;;;;;;104.05;40.33;;;15.40;99.90;;;;;;5075165;28;20051;-79
2023/05/09 00:05:08;;;;;;;107.28;39.63;;;15.50;99.90;;;;;;5075053;28;20048;-81
2023/05/09 00:07:34;;;;;;;104.47;38.45;;;15.50;99.90;;;;;;5076516;28;20060;-81
2023/05/09 00:10:00;;;;;;;100.95;37.58;;;15.40;99.90;;;;;;5080577;28;20083;-80
2023/05/09 00:12:27;;;;;;;97.33;39.60;;;15.40;99.90;;;;;;5079498;28;20072;-82
2023/05/09 00:14:55;;;;;;;92.13;36.17;;;15.50;99.90;;;;;;5082114;28;20055;-81
2023/05/09 00:17:22;;;;;;;88.50;34.55;;;15.40;99.90;;;;;;5085631;28;20051;-81
2023/05/09 00:19:48;;;;;;;85.38;34.53;;;15.30;99.90;;;;;;5082367;28;20029;-80
2023/05/09 00:22:18;;;;;;;85.90;34.60;;;15.50;99.90;;;;;;5086262;28;20484;-81
2023/05/09 00:24:43;;;;;;;82.68;33.25;;;15.30;99.90;;;;;;5082710;28;20047;-81
2023/05/09 00:27:09;;;;;;;79.13;30.77;;;15.40;99.90;;;;;;5080685;28;20048;-82
2023/05/09 00:29:35;;;;;;;84.80;33.17;;;15.30;99.90;;;;;;5079650;28;20092;-81
2023/05/09 00:32:01;;;;;;;81.93;32.60;;;15.30;99.90;;;;;;5043168;28;20040;-81
2023/05/09 00:34:27;;;;;;;78.13;30.92;;;15.20;99.90;;;;;;5073149;28;20109;-82
2023/05/09 00:36:53;;;;;;;77.03;30.60;;;15.20;99.90;;;;;;5085403;28;20082;-83
2023/05/09 00:39:18;;;;;;;76.60;31.23;;;15.10;99.90;;;;;;5092170;28;20051;-82
2023/05/09 00:41:44;;;;;;;78.57;30.42;;;15.20;99.90;;;;;;5087352;28;20051;-83
2023/05/09 00:44:10;;;;;;;80.00;30.70;;;15.20;99.90;;;;;;5083966;28;20045;-83
2023/05/09 00:46:36;;;;;;;74.97;30.77;;;15.20;99.90;;;;;;5082715;28;20094;-82
2023/05/09 00:49:03;;;;;;;72.88;29.20;;;15.10;99.90;;;;;;5079236;28;20044;-81
2023/05/09 00:51:29;;;;;;;71.25;30.40;;;15.20;99.90;;;;;;5069694;28;20048;-83
2023/05/09 00:53:55;;;;;;;73.18;30.67;;;15.20;99.90;;;;;;5087365;28;20037;-83
2023/05/09 00:56:21;;;;;;;74.18;29.15;;;15.30;99.90;;;;;;5091625;28;20100;-84
2023/05/09 00:58:47;;;;;;;72.53;30.13;;;15.30;99.90;;;;;;5080100;28;20071;-82
2023/05/09 01:01:13;;;;;;;72.80;30.73;;;15.30;99.90;;;;;;5091251;28;20044;-83
2023/05/09 01:03:40;;;;;;;74.00;30.30;;;15.40;99.90;;;;;;5091115;28;20060;-83
2023/05/09 01:06:16;;;;;;;73.30;30.40;;;15.50;99.90;;;;;;5085914;28;20040;-83
2023/05/09 01:08:57;;;;;;;71.80;29.48;;;15.40;99.90;;;;;;5089812;28;20041;-82
2023/05/09 01:11:38;;;;;;;75.13;30.38;;;15.40;99.90;;;;;;5090134;28;20044;-84
2023/05/09 01:14:36;;;;;;;73.07;29.25;;;15.50;99.90;;;;;;5087562;28;20456;-84
2023/05/09 01:17:15;;;;;;;73.88;31.38;;;15.20;99.90;;;;;;5086298;28;20033;-84
2023/05/09 01:20:09;;;;;;;75.68;29.23;;;15.20;99.90;;;;;;5084101;28;20055;-84
2023/05/09 01:22:38;;;;;;;69.10;28.48;;;15.10;99.90;;;;;;5084081;28;20044;-81
2023/05/09 01:25:22;;;;;;;72.20;29.98;;;15.10;99.90;;;;;;5086667;28;20077;-83
2023/05/09 01:27:50;;;;;;;70.45;29.00;;;15.10;99.90;;;;;;5065269;28;20044;-83
2023/05/09 01:30:17;;;;;;;74.25;30.20;;;15.00;99.90;;;;;;5076096;28;20048;-83
2023/05/09 01:32:48;;;;;;;75.25;30.02;;;15.00;99.90;;;;;;5081944;28;20044;-84
2023/05/09 01:35:15;;;;;;;74.88;29.00;;;14.90;99.90;;;;;;5088814;28;20076;-84
2023/05/09 01:37:43;;;;;;;;;;;14.90;99.90;;;;;;5091625;28;20070;-82
2023/05/09 01:40:20;;;;;;;72.60;27.65;;;14.90;99.90;;;;;;5082925;28;19916;-83
2023/05/09 01:43:04;;;;;;;;;;;14.80;99.90;;;;;;5084063;28;20045;-84
2023/05/09 01:45:31;;;;;;;72.35;27.52;;;14.80;99.90;;;;;;5081945;28;19939;-83
2023/05/09 01:47:57;;;;;;;;;;;14.80;99.90;;;;;;5086897;28;20046;-82
2023/05/09 01:50:24;;;;;;;70.15;27.92;;;14.80;99.90;;;;;;5095766;28;19935;-84
2023/05/09 01:52:53;;;;;;;72.07;29.38;;;14.80;99.90;;;;;;5096738;28;20041;-81
2023/05/09 01:55:21;;;;;;;81.45;29.75;;;14.80;99.90;;;;;;5097540;28;20048;-84
2023/05/09 01:57:50;;;;;;;71.88;28.63;;;14.80;99.90;;;;;;5226713;22;20198;-80
2023/05/09 02:00:17;;;;;;;79.90;30.33;;;14.80;99.90;;;;;;5013119;28;20458;-83
2023/05/09 02:02:43;;;;;;;83.20;31.40;;;14.80;99.90;;;;;;5015353;28;20050;-82
2023/05/09 02:05:10;;;;;;;74.68;29.33;;;14.80;99.90;;;;;;4988682;28;20117;-83
2023/05/09 02:07:37;;;;;;;73.55;29.55;;;14.90;99.90;;;;;;4997027;28;20043;-83
2023/05/09 02:10:06;;;;;;;75.38;30.42;;;14.90;99.90;;;;;;5015327;28;20042;-83
2023/05/09 02:12:32;;;;;;;74.40;29.98;;;14.90;99.90;;;;;;4993305;28;20463;-82
2023/05/09 02:14:58;;;;;;;79.20;30.88;;;15.00;99.90;;;;;;4990679;28;20037;-84
2023/05/09 02:17:24;;;;;;;76.28;30.65;;;15.00;99.90;;;;;;4994966;28;20066;-83
2023/05/09 02:19:50;;;;;;;79.55;31.35;;;15.00;99.90;;;;;;5002098;28;20055;-83
2023/05/09 02:22:16;;;;;;;75.28;30.48;;;15.00;99.90;;;;;;5010416;28;20042;-84
2023/05/09 02:24:46;;;;;;;75.23;31.73;;;15.00;99.90;;;;;;5015645;28;20038;-83
2023/05/09 02:27:15;;;;;;;76.07;31.42;;;15.00;99.90;;;;;;5018279;28;20072;-84
2023/05/09 02:29:48;;;;;;;79.70;31.60;;;15.10;99.90;;;;;;5069300;23;20061;-83
2023/05/09 02:32:27;;;;;;;77.68;31.05;;;15.00;99.90;;;;;;5020303;28;20465;-83
2023/05/09 02:34:54;;;;;;;73.47;31.27;;;15.00;99.90;;;;;;4999510;28;20066;-84
2023/05/09 02:37:21;;;;;;;81.25;31.33;;;15.10;99.90;;;;;;5030355;28;20046;-83
2023/05/09 02:39:47;;;;;;;84.55;32.70;;;15.10;99.90;;;;;;5012430;28;20034;-81
2023/05/09 02:42:19;;;;;;;84.10;32.80;;;15.10;99.90;;;;;;5014071;28;20057;-83
2023/05/09 02:44:45;;;;;;;91.68;34.08;;;15.10;99.90;;;;;;5014108;28;20030;-84
2023/05/09 02:47:12;;;;;;;88.38;33.67;;;15.10;99.90;;;;;;5017487;28;20030;-84
2023/05/09 02:49:37;;;;;;;88.55;33.72;;;15.10;99.90;;;;;;5028773;28;20046;-84
2023/05/09 02:52:03;;;;;;;92.38;33.80;;;15.10;99.90;;;;;;5003185;28;20149;-83
2023/05/09 02:54:30;;;;;;;98.53;35.40;;;15.10;99.90;;;;;;5022055;28;20081;-84
2023/05/09 02:56:56;;;;;;;98.00;35.55;;;15.10;99.90;;;;;;5034639;28;20126;-84
2023/05/09 02:59:21;;;;;;;111.50;36.33;;;15.10;99.90;;;;;;5020743;28;20046;-84
2023/05/09 03:01:48;;;;;;;110.22;37.50;;;15.00;99.90;;;;;;5035536;28;20041;-84
2023/05/09 03:04:19;;;;;;;102.57;36.45;;;15.10;99.90;;;;;;5409783;22;20012;-86
2023/05/09 03:06:45;;;;;;;115.68;38.40;;;15.10;99.90;;;;;;5034432;28;20064;-85
2023/05/09 03:09:11;;;;;;;112.18;39.47;;;15.10;99.90;;;;;;5067445;23;20042;-83
2023/05/09 03:11:37;;;;;;;122.07;40.40;;;15.10;99.90;;;;;;5013933;28;20051;-84
2023/05/09 03:14:09;;;;;;;130.57;40.58;;;15.10;99.90;;;;;;5012403;28;20084;-84
2023/05/09 03:16:43;;;;;;;115.85;40.40;;;15.20;99.90;;;;;;5000809;28;20057;-85
2023/05/09 03:19:09;;;;;;;124.03;40.72;;;15.20;99.90;;;;;;5014090;28;20050;-82
2023/05/09 03:21:35;;;;;;;125.72;40.85;;;15.10;99.90;;;;;;4997584;28;20380;-84
2023/05/09 03:24:08;;;;;;;131.10;40.72;;;15.10;99.90;;;;;;5436248;22;20016;-81
2023/05/09 03:26:35;;;;;;;133.63;41.35;;;15.20;99.90;;;;;;5496576;22;20054;-85
2023/05/09 03:29:01;;;;;;;149.00;42.47;;;15.20;99.90;;;;;;5230403;22;20062;-86
2023/05/09 03:31:28;;;;;;;;;;;15.10;99.90;;;;;;5037047;28;20058;-86
2023/05/09 03:33:54;;;;;;;117.38;38.65;;;15.20;99.90;;;;;;5036824;28;19906;-82
2023/05/09 03:36:20;;;;;;;124.32;42.30;;;15.10;99.90;;;;;;5032552;28;20045;-84
2023/05/09 03:38:47;;;;;;;122.68;40.38;;;15.20;99.90;;;;;;5036937;28;20118;-82
2023/05/09 03:41:23;;;;;;;125.90;41.35;;;15.20;99.90;;;;;;5057585;28;20057;-83
2023/05/09 03:43:49;;;;;;;138.77;42.17;;;15.20;99.90;;;;;;5128423;22;20114;-84
2023/05/09 03:46:14;;;;;;;121.45;41.47;;;15.20;99.90;;;;;;5011500;28;20947;-85
2023/05/09 03:48:40;;;;;;;119.55;40.10;;;15.20;99.90;;;;;;5000105;28;20106;-85
2023/05/09 03:51:06;;;;;;;132.87;42.97;;;15.20;99.90;;;;;;5010641;28;20524;-83
2023/05/09 03:53:35;;;;;;;120.78;42.53;;;15.20;99.90;;;;;;5002053;28;20298;-84
2023/05/09 03:56:01;;;;;;;118.65;43.70;;;15.20;99.90;;;;;;5015979;28;20053;-82
2023/05/09 03:58:27;;;;;;;119.55;43.63;;;15.20;99.90;;;;;;5016263;28;20042;-84
2023/05/09 04:03:49;;;;;;;117.57;42.40;;;15.30;99.90;;;;;;5414605;22;20351;31
2023/05/09 04:06:15;;;;;;;124.07;43.60;;;15.30;99.90;;;;;;5055008;28;20045;-86
2023/05/09 04:08:46;;;;;;;130.77;45.40;;;15.30;99.90;;;;;;5266713;23;20053;-86
2023/05/09 04:11:12;;;;;;;111.72;42.47;;;15.30;99.90;;;;;;5159067;23;20315;-84
2023/05/09 04:13:38;;;;;;;126.18;45.05;;;15.30;99.90;;;;;;5017327;28;20030;-85
2023/05/09 04:16:04;;;;;;;124.13;44.33;;;15.40;99.90;;;;;;5034845;28;20101;-82
2023/05/09 04:18:41;;;;;;;114.43;42.47;;;15.30;99.90;;;;;;5035199;28;20057;-85
2023/05/09 04:21:12;;;;;;;120.15;43.72;;;15.30;99.90;;;;;;5036994;28;20041;-81
2023/05/09 04:23:46;;;;;;;116.38;43.97;;;15.30;99.90;;;;;;5483100;23;20041;31
2023/05/09 04:26:12;;;;;;;118.40;44.05;;;15.40;99.90;;;;;;5056230;23;20050;-83
2023/05/09 04:28:38;;;;;;;112.50;43.97;;;15.40;99.90;;;;;;4996006;28;20093;-82
2023/05/09 04:31:05;;;;;;;118.63;43.85;;;15.40;99.90;;;;;;5012045;28;20054;-83
2023/05/09 04:33:31;;;;;;;117.75;43.28;;;15.40;99.90;;;;;;4986265;28;20402;-83
2023/05/09 04:35:56;;;;;;;122.07;45.28;;;15.50;99.90;;;;;;4987098;28;20133;-84
2023/05/09 04:38:22;;;;;;;118.97;44.70;;;15.50;99.90;;;;;;4998581;28;20381;-85
2023/05/09 04:40:48;;;;;;;112.10;43.72;;;15.40;99.90;;;;;;5003447;28;20132;-84
2023/05/09 04:43:14;;;;;;;107.75;42.95;;;15.50;99.90;;;;;;5002861;28;20102;-83
2023/05/09 04:45:42;;;;;;;112.73;41.60;;;15.40;99.90;;;;;;5025304;28;20067;-83
2023/05/09 04:48:09;;;;;;;96.60;41.03;;;15.50;99.90;;;;;;5017339;28;20305;-83
2023/05/09 04:53:13;;;;;;;101.18;40.20;;;15.40;99.90;;;;;;5207607;23;20070;-86
2023/05/09 04:55:42;;;;;;;89.03;38.17;;;15.40;99.90;;;;;;4983045;28;20046;-85
2023/05/09 04:58:12;;;;;;;89.53;38.47;;;15.40;99.90;;;;;;4981237;28;20568;-83
2023/05/09 05:00:41;;;;;;;87.57;37.70;;;15.50;99.90;;;;;;4965555;28;20114;-85
2023/05/09 05:03:07;;;;;;;80.07;36.17;;;15.40;99.90;;;;;;4982491;28;20054;-81
2023/05/09 05:05:35;;;;;;;82.65;35.10;;;15.50;99.90;;;;;;4997040;28;20212;-84
2023/05/09 05:08:01;;;;;;;81.88;35.67;;;15.50;99.90;;;;;;4964834;28;20046;-83
2023/05/09 05:10:30;;;;;;;80.80;35.67;;;15.50;99.90;;;;;;4994779;28;20046;-82
2023/05/09 05:12:56;;;;;;;76.80;34.88;;;15.50;99.90;;;;;;4979268;28;20050;-83
2023/05/09 05:15:22;;;;;;;78.40;35.42;;;15.50;99.90;;;;;;4999986;28;20046;-84
2023/05/09 05:17:49;;;;;;;77.93;35.37;;;15.50;99.90;;;;;;5011779;28;20042;-83
2023/05/09 05:20:15;;;;;;;71.32;33.80;;;15.60;99.90;;;;;;5012969;28;20046;-84
2023/05/09 05:22:41;;;;;;;72.32;34.28;;;15.60;99.90;;;;;;5008483;28;20054;-84
2023/05/09 05:25:07;;;;;;;75.13;34.33;;;15.60;99.90;;;;;;4992796;28;20049;-84
2023/05/09 05:27:36;;;;;;;69.70;33.17;;;15.60;99.90;;;;;;4991340;28;20050;-86
2023/05/09 05:30:06;;;;;;;68.47;33.60;;;15.60;99.90;;;;;;4992208;28;20046;-86
2023/05/09 05:32:32;;;;;;;68.22;33.13;;;15.60;99.90;;;;;;4989348;28;20127;-84
2023/05/09 05:34:58;;;;;;;64.93;32.65;;;15.60;99.90;;;;;;5009541;28;20053;-85
2023/05/09 05:37:27;;;;;;;68.60;32.50;;;15.60;99.90;;;;;;5009822;28;20078;-81
2023/05/09 05:39:53;;;;;;;64.90;32.28;;;15.60;99.90;;;;;;5010056;28;20050;-85
2023/05/09 05:42:19;;;;;;;71.10;33.10;;;15.70;99.90;;;;;;5007091;28;20037;-84
2023/05/09 05:44:44;;;;;;;65.97;32.65;;;15.70;99.90;;;;;;4992436;28;20042;-87
2023/05/09 05:47:13;;;;;;;64.10;30.85;;;15.80;99.90;;;;;;4992208;28;20598;-83
2023/05/09 05:49:39;;;;;;;63.95;32.47;;;16.40;99.90;;;;;;5011346;28;20046;-84
2023/05/09 05:52:05;;;;;;;66.95;31.98;;;15.80;99.90;;;;;;4992639;28;20042;-83
2023/05/09 05:54:31;;;;;;;66.90;32.55;;;16.60;99.90;;;;;;4976124;28;20053;-85
2023/05/09 05:56:56;;;;;;;64.60;32.60;;;16.20;99.90;;;;;;5008194;28;20046;-83
2023/05/09 05:59:23;;;;;;;68.30;32.65;;;16.40;99.90;;;;;;4991419;28;20046;-84
2023/05/09 06:01:49;;;;;;;73.35;33.20;;;16.20;99.90;;;;;;4993729;28;20046;-84
2023/05/09 06:04:15;;;;;;;69.65;33.92;;;16.10;99.90;;;;;;5009610;28;20034;-84
2023/05/09 06:06:41;;;;;;;69.57;33.40;;;16.40;99.90;;;;;;5010221;28;20042;-85
2023/05/09 06:09:10;;;;;;;67.78;32.80;;;16.30;99.90;;;;;;5011107;28;20122;-85
2023/05/09 06:11:36;;;;;;;66.07;31.98;;;16.00;99.90;;;;;;4991783;28;20232;-83
2023/05/09 06:14:02;;;;;;;66.33;32.63;;;15.60;99.90;;;;;;4977527;28;20110;-84
2023/05/09 06:16:34;;;;;;;65.00;32.00;;;16.20;99.90;;;;;;5006692;28;20049;-84
2023/05/09 06:19:00;;;;;;;63.33;30.60;;;16.10;99.90;;;;;;4987174;28;20050;-86
2023/05/09 06:21:28;;;;;;;64.75;32.10;;;16.20;99.90;;;;;;5008678;28;20058;-84
2023/05/09 06:23:54;;;;;;;66.15;32.13;;;16.20;99.90;;;;;;4986459;28;20046;-83
2023/05/09 06:26:21;;;;;;;67.53;31.98;;;16.20;99.90;;;;;;4989374;28;20050;-84
2023/05/09 06:28:46;;;;;;;60.20;31.00;;;16.30;99.90;;;;;;4988864;28;20093;-84
2023/05/09 06:31:12;;;;;;;65.35;31.25;;;16.30;99.90;;;;;;5012058;28;20026;-85
2023/05/09 06:33:38;;;;;;;67.73;32.53;;;16.30;99.90;;;;;;4990448;28;20046;-86
2023/05/09 06:36:04;;;;;;;73.30;32.00;;;16.40;99.90;;;;;;4987021;28;20072;-84
2023/05/09 06:38:30;;;;;;;66.10;31.23;;;16.40;99.90;;;;;;5007152;28;20062;-85
2023/05/09 06:40:55;;;;;;;63.13;30.40;;;16.50;99.90;;;;;;4983328;28;20031;-85
2023/05/09 06:43:21;;;;;;;64.05;31.10;;;16.50;99.90;;;;;;4991388;28;20049;-83
2023/05/09 06:45:47;;;;;;;63.65;31.52;;;16.50;99.90;;;;;;5007401;28;20050;-83
2023/05/09 06:48:12;;;;;;;64.65;29.63;;;16.50;99.90;;;;;;4975746;28;20058;-84
2023/05/09 06:50:38;;;;;;;61.38;29.05;;;16.40;99.90;;;;;;5006178;28;20049;-84
2023/05/09 06:53:04;;;;;;;55.78;29.33;;;16.50;99.90;;;;;;4969949;28;20061;-83
2023/05/09 06:55:30;;;;;;;66.20;30.10;;;16.40;99.90;;;;;;4987535;28;20129;-87
2023/05/09 06:57:56;;;;;;;65.05;30.85;;;16.30;99.90;;;;;;4972565;28;20043;-86
2023/05/09 07:00:22;;;;;;;60.63;29.13;;;16.30;99.90;;;;;;4990149;28;20050;-86
2023/05/09 07:02:48;;;;;;;61.78;29.35;;;16.30;99.90;;;;;;4986463;28;20050;-86
2023/05/09 07:05:14;;;;;;;67.65;31.17;;;16.30;99.90;;;;;;4973071;28;20487;-86
2023/05/09 07:07:40;;;;;;;62.15;29.42;;;16.40;99.90;;;;;;4987576;28;20046;-85
2023/05/09 07:10:07;;;;;;;60.88;28.90;;;16.50;99.90;;;;;;5006036;28;20049;-83
2023/05/09 07:12:33;;;;;;;64.88;29.23;;;16.50;99.90;;;;;;4973110;28;20570;-86
2023/05/09 07:14:59;;;;;;;64.68;28.55;;;16.60;99.90;;;;;;5004867;28;20140;-85
2023/05/09 07:17:25;;;;;;;64.72;30.15;;;16.60;99.90;;;;;;5003235;28;20479;-86
2023/05/09 07:19:51;;;;;;;65.30;30.53;;;16.70;99.90;;;;;;4986811;28;20058;-85
2023/05/09 07:22:16;;;;;;;64.07;30.50;;;16.80;99.90;;;;;;4972132;28;20118;-88
2023/05/09 07:24:45;;;;;;;69.82;31.25;;;16.90;99.90;;;;;;4988705;28;20046;-84
2023/05/09 07:27:11;;;;;;;65.43;28.42;;;17.00;99.90;;;;;;5006831;28;20105;-85
2023/05/09 07:29:37;;;;;;;65.47;29.45;;;17.10;99.90;;;;;;4989945;28;20050;-85
2023/05/09 07:32:03;;;;;;;62.95;28.20;;;17.20;99.90;;;;;;4985596;28;20520;-83
2023/05/09 07:34:29;;;;;;;64.67;30.20;;;17.20;99.90;;;;;;4984849;28;20074;-85
2023/05/09 07:36:54;;;;;;;62.10;29.23;;;17.40;99.90;;;;;;4985357;28;20042;-88
2023/05/09 07:39:20;;;;;;;60.55;27.58;;;17.40;99.90;;;;;;4981743;28;20110;-84
2023/05/09 07:41:46;;;;;;;66.18;29.98;;;17.50;99.90;;;;;;4982414;28;20053;-85
2023/05/09 07:44:12;;;;;;;64.80;30.77;;;17.40;99.90;;;;;;5000761;28;20053;-87
2023/05/09 07:46:39;;;;;;;62.20;30.03;;;17.10;99.90;;;;;;4983058;28;20142;-87
2023/05/09 07:49:05;;;;;;;62.65;28.40;;;17.20;99.90;;;;;;5001286;28;20514;-85
2023/05/09 07:51:31;;;;;;;64.10;29.35;;;17.30;99.90;;;;;;4967456;28;20046;-82
2023/05/09 07:53:57;;;;;;;59.63;27.80;;;17.30;99.90;;;;;;4980391;28;20162;-88
2023/05/09 07:56:23;;;;;;;58.63;28.20;;;17.20;99.90;;;;;;4985892;28;20095;-86
2023/05/09 07:58:49;;;;;;;60.87;28.00;;;17.20;99.90;;;;;;4988426;28;20042;-86
2023/05/09 08:01:15;;;;;;;60.07;27.23;;;17.30;99.90;;;;;;5003300;28;20460;-87
2023/05/09 08:03:40;;;;;;;63.45;28.70;;;17.30;99.90;;;;;;4983773;28;20050;-84
2023/05/09 08:06:07;;;;;;;57.85;28.00;;;17.40;99.90;;;;;;4968728;28;20048;-85
2023/05/09 08:08:33;;;;;;;60.15;27.45;;;17.40;99.90;;;;;;5000200;28;20473;-82
2023/05/09 08:10:58;;;;;;;59.63;27.80;;;17.40;99.90;;;;;;4970808;28;20104;-83
2023/05/09 08:13:24;;;;;;;57.23;26.20;;;17.30;99.90;;;;;;4966871;28;20050;-83
2023/05/09 08:15:50;;;;;;;52.90;25.60;;;17.40;99.90;;;;;;5000454;28;20049;-81
2023/05/09 08:18:16;;;;;;;50.33;24.63;;;17.50;99.90;;;;;;4999998;28;20510;-83
2023/05/09 08:20:42;;;;;;;49.33;24.03;;;17.60;99.90;;;;;;4981675;28;20058;-83
2023/05/09 08:23:08;;;;;;;50.57;24.07;;;17.60;99.90;;;;;;4950118;28;20046;-84
2023/05/09 08:25:34;;;;;;;50.73;22.97;;;17.60;99.90;;;;;;4981448;28;20070;-84
2023/05/09 08:28:00;;;;;;;49.75;22.65;;;17.60;99.90;;;;;;4999394;28;20042;-83
2023/05/09 08:30:28;;;;;;;47.20;23.92;;;17.60;99.90;;;;;;4999689;28;20054;-85
2023/05/09 08:32:54;;;;;;;46.45;22.50;;;17.60;99.90;;;;;;4997912;28;20054;-84
2023/05/09 08:35:20;;;;;;;44.33;22.35;;;17.70;99.90;;;;;;4967798;28;20046;-84
2023/05/09 08:37:46;;;;;;;42.20;21.25;;;17.90;99.90;;;;;;4981346;28;20103;-83
2023/05/09 08:40:13;;;;;;;45.60;22.87;;;18.00;99.90;;;;;;4966691;28;20475;-85
2023/05/09 08:42:39;;;;;;;;;;;18.20;99.90;;;;;;4982401;28;20054;-85
2023/05/09 08:45:08;;;;;;;42.37;20.33;;;18.50;99.90;;;;;;5000524;28;20271;-85
2023/05/09 08:47:38;;;;;;;43.85;21.52;;;18.70;99.90;;;;;;4982855;28;20299;-84
2023/05/09 08:50:04;;;;;;;40.97;19.95;;;18.80;99.90;;;;;;4983503;28;20053;-83
2023/05/09 08:52:32;;;;;;;44.53;22.00;;;19.10;99.90;;;;;;4998735;28;20047;-84
2023/05/09 08:54:59;;;;;;;40.35;20.88;;;19.30;99.90;;;;;;4981392;28;20082;-83
2023/05/09 08:57:25;;;;;;;;;;;19.20;99.90;;;;;;4998167;28;20098;-82
2023/05/09 08:59:51;;;;;;;;;;;19.00;99.90;;;;;;4980594;28;20290;-82
2023/05/09 09:02:18;;;;;;;39.33;19.73;;;18.90;99.90;;;;;;4999248;28;19922;-83
2023/05/09 09:04:44;;;;;;;36.40;19.52;;;19.00;99.90;;;;;;4998501;28;20050;-83
2023/05/09 09:07:12;;;;;;;33.42;18.27;;;18.90;99.90;;;;;;5000958;28;20050;-80
2023/05/09 09:09:46;;;;;;;36.03;18.83;;;18.90;99.90;;;;;;4996793;28;20125;-84
2023/05/09 09:12:14;;;;;;;34.70;17.65;;;18.80;99.90;;;;;;4980787;28;20046;-80
2023/05/09 09:14:45;;;;;;;36.90;19.60;;;18.80;99.90;;;;;;4980101;28;20133;-81
2023/05/09 09:17:15;;;;;;;42.20;20.45;;;18.80;99.90;;;;;;4996907;28;20464;-82
2023/05/09 09:19:43;;;;;;;36.75;18.95;;;18.80;99.90;;;;;;4964994;28;20050;-82
2023/05/09 09:22:14;;;;;;;35.90;18.67;;;18.90;99.90;;;;;;4980356;28;20045;-85
2023/05/09 09:24:40;;;;;;;33.03;18.15;;;19.10;99.90;;;;;;4979810;28;20117;-83
2023/05/09 09:27:06;;;;;;;33.60;17.88;;;19.30;99.90;;;;;;4963091;28;20057;-82
2023/05/09 09:29:33;;;;;;;33.20;17.88;;;19.50;99.90;;;;;;4996474;28;20046;-80
2023/05/09 09:32:02;;;;;;;32.88;16.52;;;19.60;99.90;;;;;;4995824;28;20043;-82
2023/05/09 09:34:28;;;;;;;31.40;16.63;;;19.80;99.90;;;;;;4997380;28;20134;-82
2023/05/09 09:36:54;;;;;;;32.53;17.13;;;20.00;99.90;;;;;;4962466;28;20063;-84
2023/05/09 09:39:20;;;;;;;32.20;18.17;;;20.00;99.90;;;;;;4977823;28;20137;-79
2023/05/09 09:41:47;;;;;;;32.10;16.95;;;20.10;99.90;;;;;;4947565;28;20288;-83
2023/05/09 09:44:18;;;;;;;31.15;16.60;;;20.00;99.90;;;;;;4966730;28;20050;-83
2023/05/09 09:46:53;;;;;;;30.33;17.80;;;20.00;99.90;;;;;;4997357;28;20050;-82
2023/05/09 09:49:21;;;;;;;28.58;16.98;;;20.10;99.90;;;;;;4981065;28;20047;-84
2023/05/09 09:51:57;;;;;;;31.27;16.88;;;20.10;99.90;;;;;;4977940;28;20061;-78
2023/05/09 09:54:27;;;;;;;31.57;16.50;;;20.20;99.90;;;;;;4996375;28;20533;-79
2023/05/09 09:56:53;;;;;;;27.48;14.70;;;20.20;99.90;;;;;;4962917;28;20445;-83
2023/05/09 09:59:22;;;;;;;25.40;15.07;;;20.00;99.90;;;;;;4998244;28;20057;-79
2023/05/09 10:02:08;;;;;;;27.13;16.05;;;20.00;99.90;;;;;;4996870;28;20570;-79
2023/05/09 10:04:36;;;;;;;25.50;15.77;;;20.10;99.90;;;;;;4981408;28;20117;-81
2023/05/09 10:07:09;;;;;;;23.67;14.90;;;20.20;99.90;;;;;;4981093;28;20042;-84
2023/05/09 10:09:38;;;;;;;25.95;15.52;;;20.30;99.90;;;;;;4980395;28;20050;-83
2023/05/09 10:12:06;;;;;;;26.45;15.63;;;20.40;99.90;;;;;;4996676;28;20043;-82
2023/05/09 10:14:34;;;;;;;27.00;15.57;;;20.60;99.90;;;;;;4997190;28;20487;-83
2023/05/09 10:17:02;;;;;;;28.48;15.27;;;20.80;99.90;;;;;;5000512;28;20046;-83
2023/05/09 10:19:29;;;;;;;26.13;13.65;;;21.00;99.90;;;;;;4966767;28;20054;-86
2023/05/09 10:21:57;;;;;;;26.38;14.50;;;21.20;99.90;;;;;;4999782;28;20081;-83
2023/05/09 10:24:37;;;;;;;23.88;13.93;;;21.30;99.90;;;;;;5000061;28;20522;-82
2023/05/09 10:27:07;;;;;;;22.17;12.57;;;;;;;;;;4999449;28;20046;-84
2023/05/09 10:29:35;;;;;;;22.40;13.27;;;;;;;;;;4984629;28;20046;-84
2023/05/09 10:32:14;;;;;;;19.98;13.02;;;21.60;99.90;;;;;;4984257;28;20053;-80
2023/05/09 10:34:43;;;;;;;21.50;13.60;;;21.70;99.90;;;;;;4969403;28;20053;-86
2023/05/09 10:37:09;;;;;;;25.42;14.32;;;21.50;99.90;;;;;;4984305;28;20110;-86
2023/05/09 10:39:36;;;;;;;22.00;13.65;;;21.50;99.90;;;;;;5003047;28;20050;-79
2023/05/09 10:42:02;;;;;;;;;;;21.60;99.90;;;;;;4969639;28;20077;-82
2023/05/09 10:44:28;;;;;;;26.38;12.13;;;21.60;99.90;;;;;;5003949;28;19922;-83
2023/05/09 10:46:54;;;;;;;19.50;12.30;;;21.30;99.90;;;;;;4999937;28;20579;-83
2023/05/09 10:49:21;;;;;;;20.00;11.55;;;21.40;99.90;;;;;;4985143;28;20046;-83
2023/05/09 10:51:49;;;;;;;18.35;10.75;;;21.30;99.90;;;;;;4984934;28;20078;-83
2023/05/09 10:54:31;;;;;;;18.60;11.20;;;21.50;99.90;;;;;;4987075;28;20303;-82
2023/05/09 10:56:57;;;;;;;20.15;11.65;;;21.50;99.90;;;;;;5003480;28;20081;-83
2023/05/09 10:59:35;;;;;;;19.02;10.98;;;21.30;99.90;;;;;;4967729;28;20077;-83
2023/05/09 11:02:04;;;;;;;17.65;10.50;;;21.60;99.90;;;;;;5005060;28;20054;-84
2023/05/09 11:04:31;;;;;;;16.80;9.60;;;21.70;99.90;;;;;;4989127;28;20038;-83
2023/05/09 11:06:59;;;;;;;14.38;8.77;;;21.80;99.90;;;;;;4986042;28;20072;-81
2023/05/09 11:09:28;;;;;;;14.80;8.98;;;21.40;99.90;;;;;;4987472;28;20085;-84
2023/05/09 11:12:01;;;;;;;16.50;8.63;;;21.30;99.90;;;;;;5002833;28;20552;-80
2023/05/09 11:14:36;;;;;;;13.85;8.55;;;21.60;99.90;;;;;;5001661;28;20055;-81
2023/05/09 11:17:13;;;;;;;14.60;9.70;;;21.10;99.90;;;;;;5000214;28;20058;-84
2023/05/09 11:19:45;;;;;;;16.75;9.40;;;21.00;99.90;;;;;;4986249;28;20478;-87
2023/05/09 11:22:23;;;;;;;15.85;9.63;;;21.40;99.90;;;;;;4982315;28;20069;-81
2023/05/09 11:24:59;;;;;;;14.63;9.25;;;21.30;99.90;;;;;;5002813;28;20096;-81
2023/05/09 11:27:27;;;;;;;14.07;8.70;;;21.60;99.90;;;;;;4972971;28;20042;-83
2023/05/09 11:29:55;;;;;;;15.98;9.77;;;21.80;99.90;;;;;;4966603;28;20069;-85
2023/05/09 11:32:26;;;;;;;13.45;9.20;;;;;;;;;;5001210;28;20050;-84
2023/05/09 11:35:04;;;;;;;13.93;9.23;;;;;;;;;;4981242;28;20076;-86
2023/05/09 11:37:31;;;;;;;15.77;9.95;;;;;;;;;;4980616;28;20049;-87
2023/05/09 11:39:57;;;;;;;;;;;;;;;;;;4980173;28;20052;-84
2023/05/09 11:42:24;;;;;;;15.55;9.57;;;;;;;;;;4980582;28;19930;-83
2023/05/09 11:44:51;;;;;;;16.27;8.98;;;;;;;;;;4980475;28;20050;-80
2023/05/09 11:47:17;;;;;;;12.40;8.23;;;;;;;;;;4998943;28;20093;-88
2023/05/09 11:49:44;;;;;;;12.98;8.45;;;;;;;;;;4964975;28;20092;-85
2023/05/09 11:52:10;;;;;;;;;;;;;;;;;;4999245;28;20060;-81
2023/05/09 11:54:40;;;;;;;14.13;8.73;;;;;;;;;;4980579;28;19921;-82
2023/05/09 11:57:06;;;;;;;15.05;9.27;;;;;;;;;;4962949;28;20133;-82
2023/05/09 11:59:33;;;;;;;13.80;9.68;;;;;;;;;;4997831;28;20185;-82
2023/05/09 12:01:59;;;;;;;;;;;;;;;;;;4968040;28;20042;-83
2023/05/09 12:04:28;;;;;;;13.35;9.15;;;;;;;;;;4999465;28;19998;-85
2023/05/09 12:06:54;;;;;;;16.80;8.20;;;;;;;;;;4965960;28;20046;-87
2023/05/09 12:09:21;;;;;;;13.70;8.35;;;;;;;;;;4999597;28;20046;-85
2023/05/09 12:11:47;;;;;;;;;;;;;;;;;;4981812;28;20077;-86
2023/05/09 12:14:25;;;;;;;14.48;8.65;;;;;;;;;;4999365;28;20381;-81
2023/05/09 12:16:51;;;;;;;15.63;9.50;;;;;;;;;;4980464;28;20053;-85
2023/05/09 12:19:22;;;;;;;15.10;10.75;;;;;;;;;;4964378;28;20577;-80
2023/05/09 12:21:48;;;;;;;14.65;9.65;;;;;;;;;;4981894;28;20073;-84
2023/05/09 12:24:20;;;;;;;16.33;10.35;;;;;;;;;;4981844;28;20129;-86
2023/05/09 12:26:47;;;;;;;18.90;10.43;;;;;;;;;;4981080;28;20047;-83
2023/05/09 12:29:13;;;;;;;15.45;11.10;;;;;;;;;;4999170;28;20140;-82
2023/05/09 12:31:40;;;;;;;17.50;11.77;;;;;;;;;;4965810;28;20053;-81
2023/05/09 12:34:08;;;;;;;16.58;12.02;;;;;;;;;;5001965;28;20054;-81
2023/05/09 12:36:35;;;;;;;17.80;12.15;;;;;;;;;;4968009;28;20089;-84
2023/05/09 12:39:02;;;;;;;;;;;;;;;;;;4998986;28;20062;-81
2023/05/09 12:41:28;;;;;;;22.17;12.85;;;;;;;;;;4997084;28;19926;-82
2023/05/09 12:43:55;;;;;;;18.92;13.50;;;;;;;;;;4980533;28;20447;-85
2023/05/09 12:46:21;;;;;;;19.80;13.50;;;;;;;;;;4980925;28;20412;-83
2023/05/09 12:48:48;;;;;;;20.90;14.63;;;;;;;;;;4963359;28;20086;-82